sensor_id;sensor_type;location;lat;lon;timestamp;P1;durP1;ratioP1;P2;durP2;ratioP2
77152;SDS011;66124;51.146;17.072;2023-06-26T00:02:18;6.80;;;5.00;;
77152;SDS011;66124;51.146;17.072;2023-06-26T00:04:48;6.60;;;5.40;;
77152;SDS011;66124;51.146;17.072;2023-06-26T00:07:17;7.90;;;5.50;;
77152;SDS011;66124;51.146;17.072;2023-06-26T00:09:46;8.00;;;5.30;;
77152;SDS011;66124;51.146;17.072;2023-06-26T00:12:16;9.60;;;5.70;;
77152;SDS011;66124;51.146;17.072;2023-06-26T00:14:45;8.00;;;5.50;;
77152;SDS011;66124;51.146;17.072;2023-06-26T00:17:15;7.60;;;5.10;;
77152;SDS011;66124;51.146;17.072;2023-06-26T00:19:44;9.10;;;5.70;;
77152;SDS011;66124;51.146;17.072;2023-06-26T00:22:13;7.50;;;4.80;;
77152;SDS011;66124;51.146;17.072;2023-06-26T00:24:43;3.50;;;3.10;;
77152;SDS011;66124;51.146;17.072;2023-06-26T00:35:16;7.60;;;5.50;;
77152;SDS011;66124;51.146;17.072;2023-06-26T00:37:46;8.10;;;5.80;;
77152;SDS011;66124;51.146;17.072;2023-06-26T00:40:16;7.30;;;5.30;;
77152;SDS011;66124;51.146;17.072;2023-06-26T00:42:45;9.80;;;5.20;;
77152;SDS011;66124;51.146;17.072;2023-06-26T00:45:14;7.10;;;4.80;;
77152;SDS011;66124;51.146;17.072;2023-06-26T00:47:45;8.30;;;5.60;;
77152;SDS011;66124;51.146;17.072;2023-06-26T00:50:15;7.40;;;5.20;;
77152;SDS011;66124;51.146;17.072;2023-06-26T00:52:44;7.20;;;4.90;;
77152;SDS011;66124;51.146;17.072;2023-06-26T00:55:14;7.50;;;5.30;;
77152;SDS011;66124;51.146;17.072;2023-06-26T00:57:43;7.60;;;5.30;;
77152;SDS011;66124;51.146;17.072;2023-06-26T01:00:14;9.00;;;5.50;;
77152;SDS011;66124;51.146;17.072;2023-06-26T01:05:12;10.20;;;6.10;;
77152;SDS011;66124;51.146;17.072;2023-06-26T01:07:42;7.40;;;5.10;;
77152;SDS011;66124;51.146;17.072;2023-06-26T01:10:12;9.60;;;5.40;;
77152;SDS011;66124;51.146;17.072;2023-06-26T01:12:41;9.40;;;5.50;;
77152;SDS011;66124;51.146;17.072;2023-06-26T01:15:11;8.00;;;6.00;;
77152;SDS011;66124;51.146;17.072;2023-06-26T01:17:41;7.50;;;5.60;;
77152;SDS011;66124;51.146;17.072;2023-06-26T01:20:11;8.30;;;5.70;;
77152;SDS011;66124;51.146;17.072;2023-06-26T01:22:43;7.90;;;5.50;;
77152;SDS011;66124;51.146;17.072;2023-06-26T01:25:17;9.70;;;5.90;;
77152;SDS011;66124;51.146;17.072;2023-06-26T01:27:57;8.10;;;5.50;;
77152;SDS011;66124;51.146;17.072;2023-06-26T01:30:28;9.50;;;5.90;;
77152;SDS011;66124;51.146;17.072;2023-06-26T01:32:58;11.20;;;7.20;;
77152;SDS011;66124;51.146;17.072;2023-06-26T01:35:28;8.70;;;6.10;;
77152;SDS011;66124;51.146;17.072;2023-06-26T01:38:12;8.30;;;6.00;;
77152;SDS011;66124;51.146;17.072;2023-06-26T01:40:43;9.90;;;5.70;;
77152;SDS011;66124;51.146;17.072;2023-06-26T01:43:15;7.90;;;5.90;;
77152;SDS011;66124;51.146;17.072;2023-06-26T01:45:48;9.50;;;6.30;;
77152;SDS011;66124;51.146;17.072;2023-06-26T01:51:09;9.10;;;6.70;;
77152;SDS011;66124;51.146;17.072;2023-06-26T01:53:42;7.90;;;5.70;;
77152;SDS011;66124;51.146;17.072;2023-06-26T01:56:18;8.60;;;5.40;;
77152;SDS011;66124;51.146;17.072;2023-06-26T01:58:49;9.80;;;6.40;;
77152;SDS011;66124;51.146;17.072;2023-06-26T02:01:19;8.50;;;5.80;;
77152;SDS011;66124;51.146;17.072;2023-06-26T02:03:49;10.30;;;6.20;;
77152;SDS011;66124;51.146;17.072;2023-06-26T02:06:18;7.40;;;5.70;;
77152;SDS011;66124;51.146;17.072;2023-06-26T02:08:48;7.90;;;5.90;;
77152;SDS011;66124;51.146;17.072;2023-06-26T02:11:17;9.10;;;5.90;;
77152;SDS011;66124;51.146;17.072;2023-06-26T02:13:46;8.20;;;5.30;;
77152;SDS011;66124;51.146;17.072;2023-06-26T02:16:16;9.30;;;5.70;;
77152;SDS011;66124;51.146;17.072;2023-06-26T02:18:46;8.20;;;5.30;;
77152;SDS011;66124;51.146;17.072;2023-06-26T02:21:15;9.90;;;5.80;;
77152;SDS011;66124;51.146;17.072;2023-06-26T02:23:45;7.80;;;5.70;;
77152;SDS011;66124;51.146;17.072;2023-06-26T02:26:14;11.30;;;6.70;;
77152;SDS011;66124;51.146;17.072;2023-06-26T02:28:43;7.90;;;5.30;;
77152;SDS011;66124;51.146;17.072;2023-06-26T02:31:13;7.60;;;5.90;;
77152;SDS011;66124;51.146;17.072;2023-06-26T02:33:42;10.00;;;5.90;;
77152;SDS011;66124;51.146;17.072;2023-06-26T02:36:12;10.10;;;6.00;;
77152;SDS011;66124;51.146;17.072;2023-06-26T02:38:41;8.50;;;5.70;;
77152;SDS011;66124;51.146;17.072;2023-06-26T02:41:10;7.80;;;5.70;;
77152;SDS011;66124;51.146;17.072;2023-06-26T02:43:40;7.90;;;6.40;;
77152;SDS011;66124;51.146;17.072;2023-06-26T02:46:09;10.50;;;6.20;;
77152;SDS011;66124;51.146;17.072;2023-06-26T02:48:38;8.80;;;6.00;;
77152;SDS011;66124;51.146;17.072;2023-06-26T02:51:08;7.10;;;5.00;;
77152;SDS011;66124;51.146;17.072;2023-06-26T02:53:37;9.30;;;5.90;;
77152;SDS011;66124;51.146;17.072;2023-06-26T02:56:07;7.80;;;5.20;;
77152;SDS011;66124;51.146;17.072;2023-06-26T02:58:36;7.70;;;5.10;;
77152;SDS011;66124;51.146;17.072;2023-06-26T03:06:43;7.80;;;5.10;;
77152;SDS011;66124;51.146;17.072;2023-06-26T03:09:13;7.70;;;5.30;;
77152;SDS011;66124;51.146;17.072;2023-06-26T03:11:42;7.20;;;5.50;;
77152;SDS011;66124;51.146;17.072;2023-06-26T03:14:12;7.80;;;5.30;;
77152;SDS011;66124;51.146;17.072;2023-06-26T03:16:41;7.40;;;5.10;;
77152;SDS011;66124;51.146;17.072;2023-06-26T03:19:12;9.40;;;4.90;;
77152;SDS011;66124;51.146;17.072;2023-06-26T03:21:41;8.20;;;5.20;;
77152;SDS011;66124;51.146;17.072;2023-06-26T03:24:11;10.10;;;5.20;;
77152;SDS011;66124;51.146;17.072;2023-06-26T03:26:40;8.50;;;4.80;;
77152;SDS011;66124;51.146;17.072;2023-06-26T03:29:10;8.10;;;5.00;;
77152;SDS011;66124;51.146;17.072;2023-06-26T03:31:39;10.30;;;5.30;;
77152;SDS011;66124;51.146;17.072;2023-06-26T03:34:08;6.90;;;4.70;;
77152;SDS011;66124;51.146;17.072;2023-06-26T03:36:38;13.60;;;5.50;;
77152;SDS011;66124;51.146;17.072;2023-06-26T03:39:07;10.00;;;5.00;;
77152;SDS011;66124;51.146;17.072;2023-06-26T03:41:37;7.60;;;4.70;;
77152;SDS011;66124;51.146;17.072;2023-06-26T03:44:06;8.80;;;5.30;;
77152;SDS011;66124;51.146;17.072;2023-06-26T03:46:35;11.80;;;5.70;;
77152;SDS011;66124;51.146;17.072;2023-06-26T03:49:05;8.10;;;5.10;;
77152;SDS011;66124;51.146;17.072;2023-06-26T03:51:34;9.60;;;5.70;;
77152;SDS011;66124;51.146;17.072;2023-06-26T03:54:04;8.30;;;5.40;;
77152;SDS011;66124;51.146;17.072;2023-06-26T03:56:33;6.70;;;5.20;;
77152;SDS011;66124;51.146;17.072;2023-06-26T03:59:03;14.90;;;9.00;;
77152;SDS011;66124;51.146;17.072;2023-06-26T04:01:32;8.40;;;5.50;;
77152;SDS011;66124;51.146;17.072;2023-06-26T04:04:03;10.80;;;6.30;;
77152;SDS011;66124;51.146;17.072;2023-06-26T04:06:33;8.50;;;5.80;;
77152;SDS011;66124;51.146;17.072;2023-06-26T04:09:02;8.40;;;5.70;;
77152;SDS011;66124;51.146;17.072;2023-06-26T04:11:31;8.60;;;6.30;;
77152;SDS011;66124;51.146;17.072;2023-06-26T04:14:01;10.80;;;5.20;;
77152;SDS011;66124;51.146;17.072;2023-06-26T04:21:14;9.20;;;5.60;;
77152;SDS011;66124;51.146;17.072;2023-06-26T04:23:43;9.30;;;5.70;;
77152;SDS011;66124;51.146;17.072;2023-06-26T04:26:12;9.20;;;5.80;;
77152;SDS011;66124;51.146;17.072;2023-06-26T04:28:42;8.80;;;5.60;;
77152;SDS011;66124;51.146;17.072;2023-06-26T04:31:12;8.20;;;6.40;;
77152;SDS011;66124;51.146;17.072;2023-06-26T04:33:42;8.10;;;5.50;;
77152;SDS011;66124;51.146;17.072;2023-06-26T04:36:11;11.60;;;6.30;;
77152;SDS011;66124;51.146;17.072;2023-06-26T04:38:41;9.50;;;6.20;;
77152;SDS011;66124;51.146;17.072;2023-06-26T04:41:10;10.40;;;6.30;;
77152;SDS011;66124;51.146;17.072;2023-06-26T04:43:40;9.30;;;6.20;;
77152;SDS011;66124;51.146;17.072;2023-06-26T04:46:09;10.20;;;6.80;;
77152;SDS011;66124;51.146;17.072;2023-06-26T04:48:38;9.70;;;6.00;;
77152;SDS011;66124;51.146;17.072;2023-06-26T04:51:08;9.90;;;5.70;;
77152;SDS011;66124;51.146;17.072;2023-06-26T04:53:37;10.60;;;6.40;;
77152;SDS011;66124;51.146;17.072;2023-06-26T04:56:06;9.20;;;6.40;;
77152;SDS011;66124;51.146;17.072;2023-06-26T04:58:36;8.60;;;6.10;;
77152;SDS011;66124;51.146;17.072;2023-06-26T05:01:05;9.60;;;6.00;;
77152;SDS011;66124;51.146;17.072;2023-06-26T05:03:34;10.50;;;5.80;;
77152;SDS011;66124;51.146;17.072;2023-06-26T05:06:04;11.90;;;6.90;;
77152;SDS011;66124;51.146;17.072;2023-06-26T05:08:33;7.40;;;5.50;;
77152;SDS011;66124;51.146;17.072;2023-06-26T05:11:03;9.60;;;6.00;;
77152;SDS011;66124;51.146;17.072;2023-06-26T05:13:32;9.30;;;6.50;;
77152;SDS011;66124;51.146;17.072;2023-06-26T05:16:02;10.50;;;5.90;;
77152;SDS011;66124;51.146;17.072;2023-06-26T05:18:32;8.70;;;5.90;;
77152;SDS011;66124;51.146;17.072;2023-06-26T05:21:02;9.80;;;6.20;;
77152;SDS011;66124;51.146;17.072;2023-06-26T05:23:33;6.90;;;5.00;;
77152;SDS011;66124;51.146;17.072;2023-06-26T05:26:04;10.00;;;6.40;;
77152;SDS011;66124;51.146;17.072;2023-06-26T05:28:35;8.20;;;6.50;;
77152;SDS011;66124;51.146;17.072;2023-06-26T05:41:11;7.90;;;5.90;;
77152;SDS011;66124;51.146;17.072;2023-06-26T05:43:41;9.40;;;4.90;;
77152;SDS011;66124;51.146;17.072;2023-06-26T05:46:10;8.10;;;5.60;;
77152;SDS011;66124;51.146;17.072;2023-06-26T05:48:40;8.50;;;5.70;;
77152;SDS011;66124;51.146;17.072;2023-06-26T05:51:11;8.80;;;5.10;;
77152;SDS011;66124;51.146;17.072;2023-06-26T05:53:41;9.30;;;5.50;;
77152;SDS011;66124;51.146;17.072;2023-06-26T05:56:12;8.60;;;6.10;;
77152;SDS011;66124;51.146;17.072;2023-06-26T05:58:42;8.70;;;5.70;;
77152;SDS011;66124;51.146;17.072;2023-06-26T06:01:13;8.10;;;5.70;;
77152;SDS011;66124;51.146;17.072;2023-06-26T06:03:42;8.20;;;5.40;;
77152;SDS011;66124;51.146;17.072;2023-06-26T06:06:11;8.10;;;5.70;;
77152;SDS011;66124;51.146;17.072;2023-06-26T06:08:41;8.60;;;6.10;;
77152;SDS011;66124;51.146;17.072;2023-06-26T06:11:10;6.90;;;5.10;;
77152;SDS011;66124;51.146;17.072;2023-06-26T06:13:40;8.30;;;6.00;;
77152;SDS011;66124;51.146;17.072;2023-06-26T06:16:09;9.00;;;6.00;;
77152;SDS011;66124;51.146;17.072;2023-06-26T06:18:39;7.80;;;6.20;;
77152;SDS011;66124;51.146;17.072;2023-06-26T06:21:08;7.40;;;4.90;;
77152;SDS011;66124;51.146;17.072;2023-06-26T06:23:37;9.50;;;6.00;;
77152;SDS011;66124;51.146;17.072;2023-06-26T06:26:07;8.00;;;5.10;;
77152;SDS011;66124;51.146;17.072;2023-06-26T06:28:38;7.80;;;4.70;;
77152;SDS011;66124;51.146;17.072;2023-06-26T06:31:07;6.10;;;4.80;;
77152;SDS011;66124;51.146;17.072;2023-06-26T06:33:37;8.20;;;5.50;;
77152;SDS011;66124;51.146;17.072;2023-06-26T06:36:06;7.10;;;5.20;;
77152;SDS011;66124;51.146;17.072;2023-06-26T06:38:36;7.60;;;5.20;;
77152;SDS011;66124;51.146;17.072;2023-06-26T06:41:05;6.10;;;4.80;;
77152;SDS011;66124;51.146;17.072;2023-06-26T06:43:35;7.30;;;5.50;;
77152;SDS011;66124;51.146;17.072;2023-06-26T06:46:04;7.20;;;4.70;;
77152;SDS011;66124;51.146;17.072;2023-06-26T06:48:33;8.50;;;5.50;;
77152;SDS011;66124;51.146;17.072;2023-06-26T06:51:03;8.90;;;4.30;;
77152;SDS011;66124;51.146;17.072;2023-06-26T06:53:33;6.30;;;11.20;;
77152;SDS011;66124;51.146;17.072;2023-06-26T06:59:07;7.10;;;4.80;;
77152;SDS011;66124;51.146;17.072;2023-06-26T07:01:37;5.60;;;5.00;;
77152;SDS011;66124;51.146;17.072;2023-06-26T07:04:08;8.10;;;5.00;;
77152;SDS011;66124;51.146;17.072;2023-06-26T07:06:37;7.20;;;4.90;;
77152;SDS011;66124;51.146;17.072;2023-06-26T07:09:06;5.10;;;4.30;;
77152;SDS011;66124;51.146;17.072;2023-06-26T07:11:36;7.40;;;4.70;;
77152;SDS011;66124;51.146;17.072;2023-06-26T07:14:05;6.40;;;4.80;;
77152;SDS011;66124;51.146;17.072;2023-06-26T07:16:35;7.40;;;4.30;;
77152;SDS011;66124;51.146;17.072;2023-06-26T07:19:04;5.00;;;3.80;;
77152;SDS011;66124;51.146;17.072;2023-06-26T07:21:34;4.20;;;3.70;;
77152;SDS011;66124;51.146;17.072;2023-06-26T07:24:03;7.70;;;4.30;;
77152;SDS011;66124;51.146;17.072;2023-06-26T07:26:33;5.70;;;3.90;;
77152;SDS011;66124;51.146;17.072;2023-06-26T07:29:02;5.10;;;3.90;;
77152;SDS011;66124;51.146;17.072;2023-06-26T07:31:31;5.50;;;4.20;;
77152;SDS011;66124;51.146;17.072;2023-06-26T07:34:01;5.20;;;4.20;;
77152;SDS011;66124;51.146;17.072;2023-06-26T07:36:31;4.90;;;3.90;;
77152;SDS011;66124;51.146;17.072;2023-06-26T07:39:00;4.70;;;3.80;;
77152;SDS011;66124;51.146;17.072;2023-06-26T07:41:29;5.10;;;4.40;;
77152;SDS011;66124;51.146;17.072;2023-06-26T07:43:59;6.60;;;4.50;;
77152;SDS011;66124;51.146;17.072;2023-06-26T07:46:29;6.00;;;4.00;;
77152;SDS011;66124;51.146;17.072;2023-06-26T07:48:58;5.70;;;3.90;;
77152;SDS011;66124;51.146;17.072;2023-06-26T07:51:27;5.20;;;3.90;;
77152;SDS011;66124;51.146;17.072;2023-06-26T07:53:57;5.80;;;4.20;;
77152;SDS011;66124;51.146;17.072;2023-06-26T07:56:26;4.30;;;3.80;;
77152;SDS011;66124;51.146;17.072;2023-06-26T07:58:56;4.40;;;3.70;;
77152;SDS011;66124;51.146;17.072;2023-06-26T08:01:25;5.40;;;3.70;;
77152;SDS011;66124;51.146;17.072;2023-06-26T08:03:54;4.40;;;3.50;;
77152;SDS011;66124;51.146;17.072;2023-06-26T08:06:24;4.70;;;3.20;;
77152;SDS011;66124;51.146;17.072;2023-06-26T08:08:53;3.80;;;3.50;;
77152;SDS011;66124;51.146;17.072;2023-06-26T08:19:49;5.80;;;3.80;;
77152;SDS011;66124;51.146;17.072;2023-06-26T08:22:19;4.50;;;4.10;;
77152;SDS011;66124;51.146;17.072;2023-06-26T08:24:48;4.50;;;3.80;;
77152;SDS011;66124;51.146;17.072;2023-06-26T08:27:17;5.40;;;3.60;;
77152;SDS011;66124;51.146;17.072;2023-06-26T08:29:47;4.70;;;3.40;;
77152;SDS011;66124;51.146;17.072;2023-06-26T08:32:18;4.70;;;3.30;;
77152;SDS011;66124;51.146;17.072;2023-06-26T08:34:47;5.10;;;3.20;;
77152;SDS011;66124;51.146;17.072;2023-06-26T08:37:16;4.20;;;3.30;;
77152;SDS011;66124;51.146;17.072;2023-06-26T08:39:46;5.10;;;2.90;;
77152;SDS011;66124;51.146;17.072;2023-06-26T08:42:16;4.70;;;3.10;;
77152;SDS011;66124;51.146;17.072;2023-06-26T08:44:45;3.80;;;3.40;;
77152;SDS011;66124;51.146;17.072;2023-06-26T08:47:15;5.10;;;3.10;;
77152;SDS011;66124;51.146;17.072;2023-06-26T08:49:47;3.40;;;3.00;;
77152;SDS011;66124;51.146;17.072;2023-06-26T08:52:22;4.10;;;3.70;;
77152;SDS011;66124;51.146;17.072;2023-06-26T08:54:57;3.40;;;3.10;;
77152;SDS011;66124;51.146;17.072;2023-06-26T08:57:29;3.80;;;2.80;;
77152;SDS011;66124;51.146;17.072;2023-06-26T09:00:00;4.20;;;3.30;;
77152;SDS011;66124;51.146;17.072;2023-06-26T09:02:30;5.30;;;3.00;;
77152;SDS011;66124;51.146;17.072;2023-06-26T09:05:00;3.50;;;2.90;;
77152;SDS011;66124;51.146;17.072;2023-06-26T09:07:31;4.90;;;3.10;;
77152;SDS011;66124;51.146;17.072;2023-06-26T09:10:00;3.90;;;3.00;;
77152;SDS011;66124;51.146;17.072;2023-06-26T09:12:30;2.90;;;2.60;;
77152;SDS011;66124;51.146;17.072;2023-06-26T09:15:00;4.60;;;3.20;;
77152;SDS011;66124;51.146;17.072;2023-06-26T09:17:32;3.40;;;2.90;;
77152;SDS011;66124;51.146;17.072;2023-06-26T09:20:08;3.10;;;2.70;;
77152;SDS011;66124;51.146;17.072;2023-06-26T09:22:38;3.10;;;2.70;;
77152;SDS011;66124;51.146;17.072;2023-06-26T09:25:09;3.60;;;2.70;;
77152;SDS011;66124;51.146;17.072;2023-06-26T09:27:39;3.50;;;2.70;;
77152;SDS011;66124;51.146;17.072;2023-06-26T09:40:13;3.40;;;3.10;;
77152;SDS011;66124;51.146;17.072;2023-06-26T09:42:42;2.80;;;2.50;;
77152;SDS011;66124;51.146;17.072;2023-06-26T09:45:18;4.50;;;3.40;;
77152;SDS011;66124;51.146;17.072;2023-06-26T09:47:49;4.00;;;3.20;;
77152;SDS011;66124;51.146;17.072;2023-06-26T09:50:27;4.10;;;3.00;;
77152;SDS011;66124;51.146;17.072;2023-06-26T09:52:57;3.70;;;3.00;;
77152;SDS011;66124;51.146;17.072;2023-06-26T09:55:26;3.90;;;2.90;;
77152;SDS011;66124;51.146;17.072;2023-06-26T09:57:56;4.70;;;3.70;;
77152;SDS011;66124;51.146;17.072;2023-06-26T10:00:29;3.60;;;2.80;;
77152;SDS011;66124;51.146;17.072;2023-06-26T10:02:59;4.40;;;3.10;;
77152;SDS011;66124;51.146;17.072;2023-06-26T10:05:30;4.10;;;2.60;;
77152;SDS011;66124;51.146;17.072;2023-06-26T10:08:00;4.00;;;2.70;;
77152;SDS011;66124;51.146;17.072;2023-06-26T10:10:32;4.10;;;3.10;;
77152;SDS011;66124;51.146;17.072;2023-06-26T10:13:06;4.40;;;3.00;;
77152;SDS011;66124;51.146;17.072;2023-06-26T10:15:40;4.10;;;3.20;;
77152;SDS011;66124;51.146;17.072;2023-06-26T10:18:12;3.40;;;2.90;;
77152;SDS011;66124;51.146;17.072;2023-06-26T10:20:43;3.80;;;3.00;;
77152;SDS011;66124;51.146;17.072;2023-06-26T10:23:16;3.50;;;3.20;;
77152;SDS011;66124;51.146;17.072;2023-06-26T10:25:48;5.00;;;3.20;;
77152;SDS011;66124;51.146;17.072;2023-06-26T10:28:19;3.80;;;2.90;;
77152;SDS011;66124;51.146;17.072;2023-06-26T10:30:50;3.50;;;2.80;;
77152;SDS011;66124;51.146;17.072;2023-06-26T10:33:21;3.80;;;3.10;;
77152;SDS011;66124;51.146;17.072;2023-06-26T10:35:51;3.70;;;3.00;;
77152;SDS011;66124;51.146;17.072;2023-06-26T10:38:20;4.30;;;3.20;;
77152;SDS011;66124;51.146;17.072;2023-06-26T10:41:11;3.40;;;2.90;;
77152;SDS011;66124;51.146;17.072;2023-06-26T10:43:41;3.50;;;3.10;;
77152;SDS011;66124;51.146;17.072;2023-06-26T10:46:11;3.50;;;3.20;;
77152;SDS011;66124;51.146;17.072;2023-06-26T10:48:58;3.20;;;2.60;;
77152;SDS011;66124;51.146;17.072;2023-06-26T11:02:27;3.80;;;3.20;;
77152;SDS011;66124;51.146;17.072;2023-06-26T11:05:14;3.60;;;2.90;;
77152;SDS011;66124;51.146;17.072;2023-06-26T11:08:06;4.60;;;3.00;;
77152;SDS011;66124;51.146;17.072;2023-06-26T11:10:49;4.40;;;3.20;;
77152;SDS011;66124;51.146;17.072;2023-06-26T11:13:20;3.30;;;3.00;;
77152;SDS011;66124;51.146;17.072;2023-06-26T11:15:50;4.80;;;2.70;;
77152;SDS011;66124;51.146;17.072;2023-06-26T11:18:19;3.00;;;2.70;;
77152;SDS011;66124;51.146;17.072;2023-06-26T11:20:49;3.60;;;3.10;;
77152;SDS011;66124;51.146;17.072;2023-06-26T11:23:21;3.70;;;3.00;;
77152;SDS011;66124;51.146;17.072;2023-06-26T11:25:52;3.90;;;3.50;;
77152;SDS011;66124;51.146;17.072;2023-06-26T11:28:22;3.00;;;2.70;;
77152;SDS011;66124;51.146;17.072;2023-06-26T11:30:51;4.50;;;2.70;;
77152;SDS011;66124;51.146;17.072;2023-06-26T11:33:26;3.30;;;3.00;;
77152;SDS011;66124;51.146;17.072;2023-06-26T11:35:55;3.20;;;2.90;;
77152;SDS011;66124;51.146;17.072;2023-06-26T11:38:38;8.50;;;3.00;;
77152;SDS011;66124;51.146;17.072;2023-06-26T11:41:07;2.90;;;2.60;;
77152;SDS011;66124;51.146;17.072;2023-06-26T11:43:37;3.10;;;2.70;;
77152;SDS011;66124;51.146;17.072;2023-06-26T11:46:07;3.40;;;3.10;;
77152;SDS011;66124;51.146;17.072;2023-06-26T11:48:36;3.30;;;3.00;;
77152;SDS011;66124;51.146;17.072;2023-06-26T11:51:06;4.80;;;3.10;;
77152;SDS011;66124;51.146;17.072;2023-06-26T11:53:40;3.30;;;3.00;;
77152;SDS011;66124;51.146;17.072;2023-06-26T11:56:11;4.20;;;3.20;;
77152;SDS011;66124;51.146;17.072;2023-06-26T11:59:00;3.60;;;3.30;;
77152;SDS011;66124;51.146;17.072;2023-06-26T12:01:32;3.20;;;2.90;;
77152;SDS011;66124;51.146;17.072;2023-06-26T12:04:04;3.30;;;2.80;;
77152;SDS011;66124;51.146;17.072;2023-06-26T12:06:35;3.70;;;3.40;;
77152;SDS011;66124;51.146;17.072;2023-06-26T12:11:35;4.40;;;3.20;;
77152;SDS011;66124;51.146;17.072;2023-06-26T12:24:21;6.10;;;3.00;;
77152;SDS011;66124;51.146;17.072;2023-06-26T12:26:52;3.40;;;2.70;;
77152;SDS011;66124;51.146;17.072;2023-06-26T12:29:28;3.20;;;2.90;;
77152;SDS011;66124;51.146;17.072;2023-06-26T12:31:59;4.00;;;2.80;;
77152;SDS011;66124;51.146;17.072;2023-06-26T12:34:30;3.00;;;2.70;;
77152;SDS011;66124;51.146;17.072;2023-06-26T12:37:02;3.30;;;3.00;;
77152;SDS011;66124;51.146;17.072;2023-06-26T12:39:46;3.30;;;3.00;;
77152;SDS011;66124;51.146;17.072;2023-06-26T12:42:17;3.10;;;2.80;;
77152;SDS011;66124;51.146;17.072;2023-06-26T12:44:47;4.00;;;3.20;;
77152;SDS011;66124;51.146;17.072;2023-06-26T12:47:17;5.50;;;2.90;;
77152;SDS011;66124;51.146;17.072;2023-06-26T12:49:52;3.20;;;2.80;;
77152;SDS011;66124;51.146;17.072;2023-06-26T12:52:22;3.50;;;3.00;;
77152;SDS011;66124;51.146;17.072;2023-06-26T12:54:53;3.10;;;2.80;;
77152;SDS011;66124;51.146;17.072;2023-06-26T12:57:23;3.40;;;3.10;;
77152;SDS011;66124;51.146;17.072;2023-06-26T12:59:52;3.70;;;3.10;;
77152;SDS011;66124;51.146;17.072;2023-06-26T13:02:22;3.80;;;3.40;;
77152;SDS011;66124;51.146;17.072;2023-06-26T13:04:51;3.00;;;2.80;;
77152;SDS011;66124;51.146;17.072;2023-06-26T13:07:21;3.40;;;3.00;;
77152;SDS011;66124;51.146;17.072;2023-06-26T13:09:50;4.00;;;3.70;;
77152;SDS011;66124;51.146;17.072;2023-06-26T13:12:20;3.30;;;3.00;;
77152;SDS011;66124;51.146;17.072;2023-06-26T13:14:49;3.10;;;2.80;;
77152;SDS011;66124;51.146;17.072;2023-06-26T13:17:19;3.40;;;3.10;;
77152;SDS011;66124;51.146;17.072;2023-06-26T13:19:48;3.30;;;3.00;;
77152;SDS011;66124;51.146;17.072;2023-06-26T13:22:17;3.00;;;2.70;;
77152;SDS011;66124;51.146;17.072;2023-06-26T13:24:47;3.00;;;2.70;;
77152;SDS011;66124;51.146;17.072;2023-06-26T13:27:16;3.70;;;3.80;;
77152;SDS011;66124;51.146;17.072;2023-06-26T13:29:46;3.10;;;2.80;;
77152;SDS011;66124;51.146;17.072;2023-06-26T13:32:15;3.30;;;3.00;;
77152;SDS011;66124;51.146;17.072;2023-06-26T13:34:45;2.90;;;2.70;;
77152;SDS011;66124;51.146;17.072;2023-06-26T13:37:14;3.10;;;2.60;;
77152;SDS011;66124;51.146;17.072;2023-06-26T13:48:59;3.10;;;2.70;;
77152;SDS011;66124;51.146;17.072;2023-06-26T13:51:28;3.40;;;2.80;;
77152;SDS011;66124;51.146;17.072;2023-06-26T13:53:58;3.10;;;2.80;;
77152;SDS011;66124;51.146;17.072;2023-06-26T13:56:28;2.80;;;2.50;;
77152;SDS011;66124;51.146;17.072;2023-06-26T13:58:57;3.30;;;3.00;;
77152;SDS011;66124;51.146;17.072;2023-06-26T14:01:28;2.90;;;2.70;;
77152;SDS011;66124;51.146;17.072;2023-06-26T14:03:57;2.90;;;2.70;;
77152;SDS011;66124;51.146;17.072;2023-06-26T14:06:27;3.00;;;2.80;;
77152;SDS011;66124;51.146;17.072;2023-06-26T14:08:56;3.60;;;3.10;;
77152;SDS011;66124;51.146;17.072;2023-06-26T14:11:25;3.10;;;2.70;;
77152;SDS011;66124;51.146;17.072;2023-06-26T14:13:55;3.20;;;2.90;;
77152;SDS011;66124;51.146;17.072;2023-06-26T14:16:25;3.70;;;3.40;;
77152;SDS011;66124;51.146;17.072;2023-06-26T14:18:54;3.20;;;2.90;;
77152;SDS011;66124;51.146;17.072;2023-06-26T14:21:24;4.00;;;3.80;;
77152;SDS011;66124;51.146;17.072;2023-06-26T14:23:53;3.70;;;3.40;;
77152;SDS011;66124;51.146;17.072;2023-06-26T14:26:22;3.20;;;3.00;;
77152;SDS011;66124;51.146;17.072;2023-06-26T14:28:52;3.00;;;2.80;;
77152;SDS011;66124;51.146;17.072;2023-06-26T14:31:21;3.40;;;3.10;;
77152;SDS011;66124;51.146;17.072;2023-06-26T14:33:51;3.20;;;2.90;;
77152;SDS011;66124;51.146;17.072;2023-06-26T14:36:20;3.00;;;2.60;;
77152;SDS011;66124;51.146;17.072;2023-06-26T14:38:50;3.60;;;3.40;;
77152;SDS011;66124;51.146;17.072;2023-06-26T14:41:19;3.40;;;3.10;;
77152;SDS011;66124;51.146;17.072;2023-06-26T14:43:48;3.20;;;2.90;;
77152;SDS011;66124;51.146;17.072;2023-06-26T14:46:18;3.10;;;2.70;;
77152;SDS011;66124;51.146;17.072;2023-06-26T14:48:47;3.40;;;3.10;;
77152;SDS011;66124;51.146;17.072;2023-06-26T14:51:17;3.60;;;3.00;;
77152;SDS011;66124;51.146;17.072;2023-06-26T14:53:46;3.60;;;3.00;;
77152;SDS011;66124;51.146;17.072;2023-06-26T14:56:16;3.40;;;2.90;;
77152;SDS011;66124;51.146;17.072;2023-06-26T15:08:49;3.30;;;2.70;;
77152;SDS011;66124;51.146;17.072;2023-06-26T15:11:19;3.20;;;2.90;;
77152;SDS011;66124;51.146;17.072;2023-06-26T15:13:48;2.90;;;2.60;;
77152;SDS011;66124;51.146;17.072;2023-06-26T15:16:18;3.40;;;3.10;;
77152;SDS011;66124;51.146;17.072;2023-06-26T15:18:47;3.10;;;2.80;;
77152;SDS011;66124;51.146;17.072;2023-06-26T15:21:17;3.30;;;3.00;;
77152;SDS011;66124;51.146;17.072;2023-06-26T15:23:46;2.80;;;2.60;;
77152;SDS011;66124;51.146;17.072;2023-06-26T15:26:17;2.90;;;2.70;;
77152;SDS011;66124;51.146;17.072;2023-06-26T15:28:47;3.10;;;2.90;;
77152;SDS011;66124;51.146;17.072;2023-06-26T15:31:16;3.10;;;2.80;;
77152;SDS011;66124;51.146;17.072;2023-06-26T15:33:46;3.30;;;2.70;;
77152;SDS011;66124;51.146;17.072;2023-06-26T15:36:15;3.00;;;2.70;;
77152;SDS011;66124;51.146;17.072;2023-06-26T15:38:45;3.20;;;2.90;;
77152;SDS011;66124;51.146;17.072;2023-06-26T15:41:14;3.40;;;3.10;;
77152;SDS011;66124;51.146;17.072;2023-06-26T15:43:44;4.50;;;3.60;;
77152;SDS011;66124;51.146;17.072;2023-06-26T15:46:13;3.60;;;3.30;;
77152;SDS011;66124;51.146;17.072;2023-06-26T15:48:43;3.90;;;3.60;;
77152;SDS011;66124;51.146;17.072;2023-06-26T15:51:13;3.70;;;3.20;;
77152;SDS011;66124;51.146;17.072;2023-06-26T15:53:43;3.30;;;3.00;;
77152;SDS011;66124;51.146;17.072;2023-06-26T15:56:13;3.40;;;3.10;;
77152;SDS011;66124;51.146;17.072;2023-06-26T15:58:42;3.60;;;3.30;;
77152;SDS011;66124;51.146;17.072;2023-06-26T16:01:12;3.10;;;2.80;;
77152;SDS011;66124;51.146;17.072;2023-06-26T16:03:42;5.20;;;3.30;;
77152;SDS011;66124;51.146;17.072;2023-06-26T16:06:11;3.70;;;3.40;;
77152;SDS011;66124;51.146;17.072;2023-06-26T16:08:41;4.20;;;3.90;;
77152;SDS011;66124;51.146;17.072;2023-06-26T16:11:11;3.50;;;3.20;;
77152;SDS011;66124;51.146;17.072;2023-06-26T16:13:40;4.50;;;3.40;;
77152;SDS011;66124;51.146;17.072;2023-06-26T16:16:10;3.60;;;3.30;;
77152;SDS011;66124;51.146;17.072;2023-06-26T16:29:02;3.70;;;3.40;;
77152;SDS011;66124;51.146;17.072;2023-06-26T16:31:29;3.60;;;3.20;;
77152;SDS011;66124;51.146;17.072;2023-06-26T16:33:57;4.20;;;3.80;;
77152;SDS011;66124;51.146;17.072;2023-06-26T16:36:26;4.00;;;3.60;;
77152;SDS011;66124;51.146;17.072;2023-06-26T16:38:53;4.80;;;3.70;;
77152;SDS011;66124;51.146;17.072;2023-06-26T16:41:20;3.70;;;3.40;;